Time;durP1;ratioP1;P1;durP2;ratioP2;P2;SDS_P1;SDS_P2;PMS_P1;PMS_P2;Temp;Humidity;BMP_temperature;BMP_pressure;BME280_temperature;BME280_humidity;BME280_pressure;Samples;Min_cycle;Max_cycle;Signal;HPM_P1;HPM_P2
2021/12/27 00:00:11;;;;;;;15.98;10.13;;;1.90;93.00;;;;;;2056294;28;20062;-88
2021/12/27 00:01:13;;;;;;;17.83;11.13;;;1.90;93.00;;;;;;2066300;28;20054;-88
2021/12/27 00:02:15;;;;;;;15.35;10.27;;;1.90;93.00;;;;;;2081098;28;20063;-87
2021/12/27 00:03:16;;;;;;;16.75;10.60;;;1.90;93.00;;;;;;2080318;28;20044;-87
2021/12/27 00:04:17;;;;;;;18.05;11.55;;;1.90;93.00;;;;;;2080822;28;20396;-86
2021/12/27 00:05:18;;;;;;;16.30;10.75;;;1.90;93.00;;;;;;2081255;28;20033;-86
2021/12/27 00:06:18;;;;;;;15.25;9.75;;;1.90;93.00;;;;;;2072749;28;20033;-88
2021/12/27 00:07:19;;;;;;;14.63;9.43;;;1.90;93.00;;;;;;2079852;28;20064;-87
2021/12/27 00:08:20;;;;;;;16.45;10.52;;;1.90;93.00;;;;;;2081096;28;20033;-87
2021/12/27 00:09:20;;;;;;;14.85;9.73;;;1.90;93.00;;;;;;2079968;28;20752;-87
2021/12/27 00:10:23;;;;;;;15.85;10.55;;;1.90;93.00;;;;;;2079892;28;20042;-87
2021/12/27 00:11:24;;;;;;;14.35;9.57;;;1.90;93.00;;;;;;2081384;28;20076;-87
2021/12/27 00:12:25;;;;;;;14.85;9.32;;;1.90;93.00;;;;;;2081705;28;20107;-87
2021/12/27 00:13:26;;;;;;;15.90;10.57;;;1.90;93.00;;;;;;2080045;28;20061;-87
2021/12/27 00:14:26;;;;;;;15.30;10.02;;;1.90;93.10;;;;;;2097787;28;20033;-87
2021/12/27 00:15:27;;;;;;;14.13;9.27;;;1.90;93.10;;;;;;2084417;28;20057;-88
2021/12/27 00:16:28;;;;;;;15.13;9.18;;;1.90;93.10;;;;;;2072994;28;20536;-87
2021/12/27 00:17:28;;;;;;;13.35;8.77;;;1.90;93.10;;;;;;2066706;28;20034;-87
2021/12/27 00:18:29;;;;;;;15.70;9.73;;;1.90;93.10;;;;;;2089988;28;20047;-88
2021/12/27 00:19:32;;;;;;;16.17;10.40;;;1.90;93.10;;;;;;2088757;28;20041;-87
2021/12/27 00:20:32;;;;;;;17.05;10.43;;;1.90;93.10;;;;;;2089728;28;20037;-88
2021/12/27 00:21:33;;;;;;;18.00;11.02;;;1.90;93.10;;;;;;2073354;28;20464;-87
2021/12/27 00:22:33;;;;;;;17.80;10.90;;;1.90;93.10;;;;;;2072924;28;20040;-86
2021/12/27 00:23:34;;;;;;;17.88;10.98;;;1.90;93.10;;;;;;2075598;28;20046;-87
2021/12/27 00:24:35;;;;;;;17.58;10.85;;;1.90;93.10;;;;;;2079119;28;20097;-88
2021/12/27 00:25:35;;;;;;;18.20;11.30;;;1.90;93.10;;;;;;2083523;28;20033;-88
2021/12/27 00:26:36;;;;;;;16.23;10.38;;;1.90;93.20;;;;;;2071557;28;20034;-88
2021/12/27 00:27:37;;;;;;;20.25;11.63;;;1.90;93.20;;;;;;2072686;28;20525;-87
2021/12/27 00:28:37;;;;;;;17.17;11.00;;;1.90;93.20;;;;;;2071767;28;20077;-87
2021/12/27 00:29:38;;;;;;;16.92;11.25;;;1.90;93.20;;;;;;2075044;28;20033;-88
2021/12/27 00:30:39;;;;;;;16.25;10.65;;;1.90;93.20;;;;;;2080161;28;20045;-87
2021/12/27 00:31:39;;;;;;;16.85;10.73;;;1.90;93.50;;;;;;2089899;28;20483;-87
2021/12/27 00:32:43;;;;;;;17.48;10.77;;;1.90;93.20;;;;;;2089823;28;20040;-88
2021/12/27 00:33:44;;;;;;;16.48;11.35;;;1.90;93.20;;;;;;2081032;28;20033;-87
2021/12/27 00:34:45;;;;;;;17.85;10.18;;;1.90;93.30;;;;;;2080867;28;20091;-88
2021/12/27 00:35:46;;;;;;;15.02;10.05;;;1.90;93.30;;;;;;2072925;28;20468;-88
2021/12/27 00:36:46;;;;;;;14.55;9.57;;;1.90;93.30;;;;;;2072432;28;20046;-88
2021/12/27 00:37:47;;;;;;;14.55;9.35;;;1.90;93.30;;;;;;2064910;28;20499;-87
2021/12/27 00:38:48;;;;;;;15.63;9.50;;;1.90;93.30;;;;;;2062485;28;20030;-87
2021/12/27 00:39:49;;;;;;;16.15;9.27;;;1.90;93.30;;;;;;2089346;28;20132;-87
2021/12/27 00:40:49;;;;;;;17.00;10.35;;;1.90;93.30;;;;;;2089804;28;20033;-87
2021/12/27 00:41:51;;;;;;;15.40;10.23;;;1.90;93.30;;;;;;2080851;28;20033;-87
2021/12/27 00:42:51;;;;;;;15.38;9.73;;;1.90;93.30;;;;;;2072684;28;20044;-86
2021/12/27 00:43:52;;;;;;;15.40;9.27;;;1.90;93.30;;;;;;2089635;28;20502;-84
2021/12/27 00:44:53;;;;;;;13.65;9.00;;;1.90;93.30;;;;;;2087438;28;20029;-83
2021/12/27 00:45:54;;;;;;;16.55;9.93;;;1.90;93.30;;;;;;2090549;28;20041;-85
2021/12/27 00:46:55;;;;;;;16.20;9.88;;;1.90;93.30;;;;;;2079280;28;20079;-84
2021/12/27 00:47:55;;;;;;;15.27;10.05;;;1.90;93.30;;;;;;2082728;28;20056;-84
2021/12/27 00:48:56;;;;;;;15.15;10.20;;;1.90;93.30;;;;;;2073080;28;20064;-83
2021/12/27 00:49:57;;;;;;;14.00;9.32;;;2.00;93.40;;;;;;2074901;28;20038;-84
2021/12/27 00:50:57;;;;;;;16.65;10.25;;;2.00;93.40;;;;;;2090878;28;20079;-84
2021/12/27 00:51:58;;;;;;;16.20;9.90;;;2.00;93.40;;;;;;2091631;28;20064;-86
2021/12/27 00:52:59;;;;;;;15.50;10.02;;;1.90;93.30;;;;;;2082466;28;20391;-86
2021/12/27 00:53:59;;;;;;;16.05;9.45;;;2.00;93.40;;;;;;2073002;28;20030;-87
2021/12/27 00:55:00;;;;;;;14.88;9.65;;;2.00;93.40;;;;;;2056545;28;20329;-87
2021/12/27 00:56:01;;;;;;;14.23;9.10;;;2.00;93.40;;;;;;2064840;28;20038;-87
2021/12/27 00:57:02;;;;;;;13.98;9.15;;;1.90;93.30;;;;;;2064521;28;20041;-88
2021/12/27 00:58:03;;;;;;;16.23;10.18;;;2.00;93.40;;;;;;2078960;28;20145;-87
2021/12/27 00:59:03;;;;;;;16.48;10.27;;;2.00;93.40;;;;;;2070803;28;20176;-88
2021/12/27 01:00:11;;;;;;;18.90;9.93;;;2.00;93.40;;;;;;2064672;28;20163;-87
2021/12/27 01:01:12;;;;;;;17.13;10.88;;;2.00;93.40;;;;;;2074751;28;20434;-87
2021/12/27 01:02:12;;;;;;;16.25;10.52;;;2.00;93.40;;;;;;2086774;28;20025;-88
2021/12/27 01:03:13;;;;;;;15.52;9.75;;;2.00;93.40;;;;;;2070036;28;20050;-87
2021/12/27 01:04:14;;;;;;;16.10;10.57;;;2.00;93.40;;;;;;2070351;28;20026;-88
2021/12/27 01:05:15;;;;;;;15.73;10.10;;;2.00;93.40;;;;;;2082324;28;20049;-88
2021/12/27 01:06:16;;;;;;;14.68;9.80;;;2.00;93.40;;;;;;2081388;28;20052;-88
2021/12/27 01:07:17;;;;;;;15.68;10.07;;;2.00;93.40;;;;;;2089866;28;20491;-88
2021/12/27 01:08:18;;;;;;;15.95;10.25;;;2.00;93.40;;;;;;2080067;28;20512;-88
2021/12/27 01:09:36;;;;;;;15.52;9.90;;;2.00;93.40;;;;;;2065854;28;20033;-88
2021/12/27 01:12:31;;;;;;;15.07;9.82;;;2.00;93.40;;;;;;2068995;28;20125;-88
2021/12/27 01:13:39;;;;;;;14.15;9.45;;;2.00;93.40;;;;;;2086214;28;20483;-87
2021/12/27 01:14:44;;;;;;;15.35;9.45;;;2.00;93.30;;;;;;2080868;28;20076;-88
2021/12/27 01:16:46;;;;;;;15.55;9.55;;;2.00;93.30;;;;;;2093476;28;20031;-88
2021/12/27 01:17:49;;;;;;;14.07;9.38;;;2.00;93.30;;;;;;2098126;28;20047;-88
2021/12/27 01:18:50;;;;;;;14.55;8.93;;;2.00;93.30;;;;;;2089754;28;20127;-89
2021/12/27 01:19:51;;;;;;;16.35;9.73;;;2.10;93.40;;;;;;2083770;28;20046;-88
2021/12/27 01:20:51;;;;;;;15.65;10.52;;;2.10;93.40;;;;;;2071072;28;20625;-88
2021/12/27 01:21:52;;;;;;;16.45;10.27;;;2.10;93.40;;;;;;2069119;28;20046;-87
2021/12/27 01:22:54;;;;;;;17.77;11.15;;;2.10;93.40;;;;;;2080401;28;20128;-88
2021/12/27 01:23:55;;;;;;;18.42;11.00;;;2.10;93.40;;;;;;2088535;28;20131;-88
2021/12/27 01:24:56;;;;;;;15.65;10.25;;;2.10;93.50;;;;;;2097675;28;20071;-88
2021/12/27 01:25:57;;;;;;;15.30;9.65;;;2.10;93.50;;;;;;2080626;28;20036;-88
2021/12/27 01:27:01;;;;;;;15.50;9.73;;;2.10;93.50;;;;;;2072434;28;20108;-88
2021/12/27 01:28:03;;;;;;;16.08;10.20;;;2.10;93.50;;;;;;2081358;28;20034;-88
2021/12/27 01:29:07;;;;;;;17.20;10.00;;;2.10;93.50;;;;;;2072677;28;20045;-88
2021/12/27 01:30:11;;;;;;;15.18;9.75;;;2.10;93.50;;;;;;2073215;28;20038;-88
2021/12/27 01:31:13;;;;;;;16.42;10.70;;;2.10;93.50;;;;;;2072058;28;20052;-88
2021/12/27 01:32:13;;;;;;;18.15;11.00;;;2.10;93.50;;;;;;2079544;28;20049;-87
2021/12/27 01:33:19;;;;;;;17.35;10.90;;;2.10;93.50;;;;;;2096544;28;20055;-88
2021/12/27 01:34:22;;;;;;;17.80;11.10;;;2.10;93.50;;;;;;2097520;28;20043;-88
2021/12/27 01:35:24;;;;;;;17.95;11.52;;;2.10;93.50;;;;;;2088647;28;20045;-87
2021/12/27 01:36:31;;;;;;;15.77;10.43;;;2.10;93.60;;;;;;2084235;28;20164;-87
2021/12/27 01:37:32;;;;;;;15.85;10.10;;;2.10;93.60;;;;;;2089668;28;20073;-86
2021/12/27 01:38:37;;;;;;;15.05;9.73;;;2.10;93.50;;;;;;2080581;28;20041;-88
2021/12/27 01:39:38;;;;;;;13.38;9.38;;;2.10;93.60;;;;;;2081593;28;20032;-88
2021/12/27 01:40:41;;;;;;;14.20;8.88;;;2.10;93.60;;;;;;2072281;28;20057;-88
2021/12/27 01:41:42;;;;;;;13.80;9.05;;;2.10;93.60;;;;;;2080412;28;20059;-88
2021/12/27 01:43:09;;;;;;;14.80;9.57;;;2.10;93.60;;;;;;2080045;28;20037;-88
2021/12/27 01:44:11;;;;;;;14.10;9.25;;;2.10;93.60;;;;;;2086070;28;20029;-88
2021/12/27 01:45:11;;;;;;;15.15;9.52;;;2.10;93.60;;;;;;2082294;28;20042;-88
2021/12/27 01:46:20;;;;;;;13.65;8.50;;;2.10;93.60;;;;;;2078122;28;20046;-88
2021/12/27 01:47:21;;;;;;;14.77;9.45;;;2.10;93.60;;;;;;2084954;28;20044;-88
2021/12/27 01:48:28;;;;;;;14.88;9.48;;;2.10;93.60;;;;;;2098341;28;20494;-87
2021/12/27 01:49:29;;;;;;;14.50;9.00;;;2.10;93.60;;;;;;2090736;28;20450;-88
2021/12/27 01:50:30;;;;;;;15.05;9.63;;;2.10;93.60;;;;;;2081887;28;20061;-88
2021/12/27 01:51:30;;;;;;;14.98;9.10;;;2.10;93.60;;;;;;2082304;28;20045;-87
2021/12/27 01:52:31;;;;;;;16.50;10.23;;;2.10;93.60;;;;;;2073290;28;20066;-88
2021/12/27 01:53:34;;;;;;;15.85;9.63;;;2.10;93.60;;;;;;2073081;28;20045;-87
2021/12/27 01:54:35;;;;;;;15.98;10.10;;;2.10;93.70;;;;;;2074297;28;20072;-88
2021/12/27 01:55:36;;;;;;;16.25;9.90;;;2.10;93.70;;;;;;2070280;28;20618;-88
2021/12/27 01:56:37;;;;;;;13.15;8.60;;;2.10;93.70;;;;;;2082218;28;20037;-88
2021/12/27 01:57:37;;;;;;;16.02;10.38;;;2.10;93.70;;;;;;2082405;28;20124;-88
2021/12/27 01:58:39;;;;;;;17.35;9.80;;;2.10;93.70;;;;;;2081882;28;20107;-88
2021/12/27 01:59:39;;;;;;;19.92;11.85;;;2.10;93.70;;;;;;2082056;28;20064;-88
2021/12/27 02:00:43;;;;;;;16.02;9.52;;;2.10;93.70;;;;;;2073846;28;20033;-88
2021/12/27 02:01:44;;;;;;;13.93;9.35;;;2.10;93.70;;;;;;2082697;28;20049;-88
2021/12/27 02:02:45;;;;;;;16.20;10.00;;;2.10;93.70;;;;;;2085234;28;20056;-88
2021/12/27 02:03:48;;;;;;;16.17;9.98;;;2.10;93.70;;;;;;2087897;28;20068;-88
2021/12/27 02:04:49;;;;;;;15.55;9.50;;;2.10;93.70;;;;;;2082039;28;20047;-88
2021/12/27 02:05:50;;;;;;;17.02;10.15;;;2.10;94.00;;;;;;2074076;28;20038;-88
2021/12/27 02:06:51;;;;;;;15.15;10.05;;;2.10;93.80;;;;;;2082236;28;20037;-88
2021/12/27 02:07:51;;;;;;;15.10;10.10;;;2.10;93.80;;;;;;2074629;28;20042;-88
2021/12/27 02:08:52;;;;;;;13.93;9.15;;;2.10;93.80;;;;;;2074029;28;20038;-88
2021/12/27 02:10:01;;;;;;;13.77;9.15;;;2.10;93.80;;;;;;2077953;28;20033;-87
2021/12/27 02:11:04;;;;;;;15.68;9.82;;;2.10;93.80;;;;;;2075127;28;20046;-88
2021/12/27 02:12:05;;;;;;;15.30;10.02;;;2.10;93.80;;;;;;2059779;28;20506;-88
2021/12/27 02:13:06;;;;;;;15.98;9.95;;;2.10;93.80;;;;;;2065489;28;20065;-88
2021/12/27 02:14:08;;;;;;;16.58;10.02;;;2.10;93.80;;;;;;2073089;28;20130;-88
2021/12/27 02:15:10;;;;;;;16.35;9.82;;;2.10;93.80;;;;;;2082131;28;20056;-87
2021/12/27 02:16:12;;;;;;;14.85;9.82;;;2.10;93.90;;;;;;2090394;28;20037;-87
2021/12/27 02:17:18;;;;;;;14.63;9.15;;;2.10;93.90;;;;;;2087184;28;20033;-88
2021/12/27 02:18:19;;;;;;;14.18;9.07;;;2.20;93.90;;;;;;2074730;28;20133;-87
2021/12/27 02:19:20;;;;;;;17.35;10.02;;;2.10;93.90;;;;;;2081789;28;20029;-87
2021/12/27 02:20:24;;;;;;;14.63;9.68;;;2.20;93.90;;;;;;2098827;28;20060;-88
2021/12/27 02:21:25;;;;;;;17.73;9.50;;;2.10;93.90;;;;;;2097809;28;20449;-87
2021/12/27 02:22:26;;;;;;;16.58;10.32;;;2.10;93.90;;;;;;2090452;28;20033;-87
2021/12/27 02:23:27;;;;;;;14.40;9.38;;;2.20;93.90;;;;;;2098858;28;20059;-88
2021/12/27 02:24:27;;;;;;;15.75;10.02;;;2.20;94.00;;;;;;2095955;28;20037;-88
2021/12/27 02:25:32;;;;;;;15.23;9.75;;;2.20;94.00;;;;;;2089129;28;20033;-88
2021/12/27 02:26:33;;;;;;;15.90;9.50;;;2.20;94.00;;;;;;2080270;28;20036;-87
2021/12/27 02:27:34;;;;;;;14.68;9.50;;;2.20;94.00;;;;;;2080939;28;20132;-88
2021/12/27 02:28:36;;;;;;;15.05;9.82;;;2.20;94.20;;;;;;2090282;28;20029;-87
2021/12/27 02:29:37;;;;;;;17.52;10.65;;;2.20;94.00;;;;;;2099245;28;20033;-88
2021/12/27 02:30:40;;;;;;;14.25;9.70;;;2.20;94.00;;;;;;2091114;28;20574;-88
2021/12/27 02:31:41;;;;;;;13.85;9.00;;;2.20;94.00;;;;;;2083619;28;20041;-88
2021/12/27 02:33:03;;;;;;;16.73;9.95;;;2.20;94.00;;;;;;2091689;28;20111;-87
2021/12/27 02:34:05;;;;;;;17.60;11.32;;;2.20;94.00;;;;;;2094053;28;20028;-88
2021/12/27 02:35:06;;;;;;;14.82;9.10;;;2.20;94.00;;;;;;2090209;28;20082;-87
2021/12/27 02:36:07;;;;;;;14.27;9.43;;;2.20;94.00;;;;;;2072816;28;20042;-87
2021/12/27 02:37:08;;;;;;;14.52;8.95;;;2.20;94.00;;;;;;2073390;28;20049;-88
2021/12/27 02:38:22;;;;;;;16.05;10.07;;;2.20;94.00;;;;;;2073934;28;20037;-87
2021/12/27 02:39:24;;;;;;;13.52;8.88;;;2.20;94.00;;;;;;2084426;28;20081;-88
2021/12/27 02:40:27;;;;;;;15.85;9.05;;;2.20;94.00;;;;;;2092264;28;20033;-87
2021/12/27 02:41:27;;;;;;;14.25;9.02;;;2.20;94.00;;;;;;2099746;28;20055;-84
2021/12/27 02:42:28;;;;;;;15.68;9.63;;;2.20;94.00;;;;;;2089541;28;20060;-85
2021/12/27 02:43:30;;;;;;;13.77;9.15;;;2.20;94.00;;;;;;2073997;28;20128;-86
2021/12/27 02:44:31;;;;;;;15.57;9.70;;;2.20;94.00;;;;;;2074544;28;20040;-84
2021/12/27 02:45:35;;;;;;;14.05;9.35;;;2.20;94.00;;;;;;2086922;28;20040;-85
2021/12/27 02:46:35;;;;;;;14.38;9.05;;;2.20;94.00;;;;;;2090590;28;20164;-84
2021/12/27 02:47:36;;;;;;;15.27;9.93;;;2.20;94.00;;;;;;2099818;28;20090;-84
2021/12/27 02:48:44;;;;;;;14.32;8.95;;;2.20;94.00;;;;;;2090823;28;20419;-85
2021/12/27 02:49:45;;;;;;;12.35;8.45;;;2.20;94.10;;;;;;2091089;28;20503;-84
2021/12/27 02:50:47;;;;;;;14.05;8.70;;;2.20;94.00;;;;;;2090402;28;20065;-84
2021/12/27 02:51:48;;;;;;;13.77;9.15;;;2.20;94.10;;;;;;2080135;28;20040;-84
2021/12/27 02:52:49;;;;;;;13.95;8.55;;;2.20;94.10;;;;;;2081532;28;20436;-87
2021/12/27 02:53:50;;;;;;;13.88;9.07;;;2.30;94.10;;;;;;2087312;28;20068;-87
2021/12/27 02:54:50;;;;;;;15.45;9.30;;;2.30;94.10;;;;;;2089926;28;20040;-86
2021/12/27 02:55:54;;;;;;;15.05;9.88;;;2.30;94.10;;;;;;2080712;28;20049;-87
2021/12/27 02:56:54;;;;;;;15.63;9.60;;;2.30;94.10;;;;;;2081429;28;20038;-87
2021/12/27 02:57:55;;;;;;;14.27;8.88;;;2.30;94.10;;;;;;2089970;28;20091;-87
2021/12/27 02:58:57;;;;;;;13.88;9.38;;;2.30;94.10;;;;;;2081467;28;20033;-86
2021/12/27 02:59:57;;;;;;;14.05;8.40;;;2.30;94.10;;;;;;2090443;28;20052;-87
2021/12/27 03:01:08;;;;;;;14.30;9.10;;;2.30;94.40;;;;;;2081253;28;20568;-86
2021/12/27 03:02:08;;;;;;;14.98;9.15;;;2.30;94.10;;;;;;2079704;28;20040;-87
2021/12/27 03:03:09;;;;;;;14.27;9.00;;;2.30;94.10;;;;;;2089570;28;20037;-87
2021/12/27 03:04:10;;;;;;;15.25;9.60;;;2.30;94.10;;;;;;2076622;28;20026;-86
2021/12/27 03:05:12;;;;;;;13.40;8.93;;;2.30;94.10;;;;;;2080005;28;20620;-86
2021/12/27 03:06:13;;;;;;;14.20;8.90;;;2.30;94.40;;;;;;2097690;28;20039;-86
2021/12/27 03:07:13;;;;;;;13.40;8.90;;;2.30;94.10;;;;;;2089120;28;20025;-87
2021/12/27 03:08:15;;;;;;;12.90;9.15;;;2.30;94.10;;;;;;2073355;28;20500;-87
2021/12/27 03:09:16;;;;;;;14.63;9.35;;;2.30;94.10;;;;;;2080981;28;20470;-87
2021/12/27 03:10:22;;;;;;;14.85;9.63;;;2.30;94.10;;;;;;2078496;28;20042;-87
2021/12/27 03:11:23;;;;;;;13.90;8.90;;;2.30;94.20;;;;;;2090221;28;20029;-87
2021/12/27 03:12:24;;;;;;;13.00;8.20;;;2.40;94.20;;;;;;2098373;28;20127;-87
2021/12/27 03:13:29;;;;;;;13.20;8.75;;;2.40;94.40;;;;;;2073347;28;20084;-86
2021/12/27 03:14:30;;;;;;;14.20;9.23;;;2.40;94.20;;;;;;2066880;28;20022;-87
2021/12/27 03:15:31;;;;;;;16.35;9.82;;;2.40;94.20;;;;;;2085779;28;20092;-87
2021/12/27 03:16:32;;;;;;;14.27;8.73;;;2.40;94.20;;;;;;2098219;28;20131;-87
2021/12/27 03:17:36;;;;;;;14.65;9.73;;;2.40;94.20;;;;;;2096639;28;20105;-87
2021/12/27 03:18:39;;;;;;;15.05;9.82;;;2.40;94.20;;;;;;2081352;28;20068;-88
2021/12/27 03:19:40;;;;;;;13.93;9.05;;;2.40;94.20;;;;;;2082638;28;20029;-87
2021/12/27 03:20:40;;;;;;;14.15;9.07;;;2.40;94.20;;;;;;2089455;28;20372;-87
2021/12/27 03:21:41;;;;;;;13.13;8.65;;;2.40;94.20;;;;;;2094737;28;20045;-87
2021/12/27 03:22:43;;;;;;;12.40;8.63;;;2.40;94.20;;;;;;2106239;28;20058;-87
2021/12/27 03:23:45;;;;;;;14.60;9.70;;;2.40;94.20;;;;;;2098170;28;20675;-87
2021/12/27 03:24:46;;;;;;;14.98;9.07;;;2.40;94.20;;;;;;2073258;28;20038;-87
2021/12/27 03:25:47;;;;;;;14.88;9.40;;;2.40;94.20;;;;;;2072583;28;20065;-87
2021/12/27 03:26:48;;;;;;;15.30;9.40;;;2.40;94.20;;;;;;2089922;28;20545;-87
2021/12/27 03:27:49;;;;;;;15.73;9.88;;;2.40;94.20;;;;;;2079542;28;20124;-87
2021/12/27 03:28:50;;;;;;;16.33;9.80;;;2.40;94.30;;;;;;2089312;28;20037;-87
2021/12/27 03:29:51;;;;;;;14.10;9.27;;;2.40;94.30;;;;;;2098314;28;20036;-88
2021/12/27 03:30:52;;;;;;;16.17;9.40;;;2.40;94.30;;;;;;2089591;28;20048;-87
2021/12/27 03:31:55;;;;;;;16.65;10.40;;;2.40;94.30;;;;;;2081867;28;20050;-86
2021/12/27 03:32:55;;;;;;;14.75;9.35;;;2.40;94.30;;;;;;2086197;28;20188;-87
2021/12/27 03:33:58;;;;;;;15.15;9.07;;;2.40;94.30;;;;;;2093808;28;20112;-87
2021/12/27 03:35:08;;;;;;;16.20;9.90;;;2.50;94.30;;;;;;2085994;28;20136;-87
2021/12/27 03:36:09;;;;;;;16.40;10.60;;;2.50;94.30;;;;;;2078373;28;20508;-88
2021/12/27 03:37:10;;;;;;;14.90;9.48;;;2.40;94.30;;;;;;2081208;28;20045;-87
2021/12/27 03:38:11;;;;;;;15.27;9.90;;;2.50;94.30;;;;;;2082335;28;20044;-87
2021/12/27 03:39:12;;;;;;;13.55;9.70;;;2.50;94.30;;;;;;2098383;28;20194;-87
2021/12/27 03:40:16;;;;;;;15.70;10.32;;;2.50;94.30;;;;;;2080374;28;20038;-88
2021/12/27 03:41:20;;;;;;;15.70;10.27;;;2.50;94.30;;;;;;2081954;28;20085;-87
2021/12/27 03:42:20;;;;;;;15.95;10.50;;;2.50;94.30;;;;;;2089241;28;20040;-88
2021/12/27 03:43:21;;;;;;;17.67;10.55;;;2.50;94.30;;;;;;2089029;28;20029;-88
2021/12/27 03:44:22;;;;;;;17.38;11.43;;;2.50;94.30;;;;;;2089598;28;20045;-88
2021/12/27 03:45:29;;;;;;;16.60;10.13;;;2.50;94.30;;;;;;2081482;28;20038;-88
2021/12/27 03:46:30;;;;;;;13.32;8.93;;;2.50;94.40;;;;;;2082233;28;20021;-88
2021/12/27 03:47:31;;;;;;;14.90;9.70;;;2.50;94.30;;;;;;2090775;28;20040;-88
2021/12/27 03:48:31;;;;;;;18.02;10.73;;;2.50;94.40;;;;;;2091596;28;20044;-88
2021/12/27 03:49:32;;;;;;;14.68;10.00;;;2.50;94.40;;;;;;2081389;28;20431;-88
2021/12/27 03:50:34;;;;;;;14.55;9.60;;;2.50;94.40;;;;;;2056919;28;20476;-88
2021/12/27 03:51:34;;;;;;;14.75;9.30;;;2.50;94.40;;;;;;2073008;28;20042;-88
2021/12/27 03:52:37;;;;;;;16.83;10.80;;;2.50;94.40;;;;;;2075000;28;20407;-88
2021/12/27 03:53:37;;;;;;;16.08;9.93;;;2.50;94.40;;;;;;2073630;28;20038;-88
2021/12/27 03:54:38;;;;;;;15.27;9.45;;;2.50;94.70;;;;;;2081330;28;20056;-88
2021/12/27 03:55:39;;;;;;;15.90;9.25;;;2.50;94.40;;;;;;2081338;28;20083;-88
2021/12/27 03:56:40;;;;;;;13.98;9.55;;;2.50;94.40;;;;;;2070372;28;20045;-88
2021/12/27 03:57:50;;;;;;;13.65;9.00;;;2.50;94.40;;;;;;2055961;28;20506;-88
2021/12/27 03:58:57;;;;;;;14.23;9.43;;;2.50;94.40;;;;;;2068195;28;20034;-87
2021/12/27 04:01:18;;;;;;;14.85;8.48;;;2.50;94.40;;;;;;2083913;28;20494;-88
2021/12/27 04:02:18;;;;;;;15.57;9.00;;;2.50;94.40;;;;;;2083650;28;20511;-88
2021/12/27 04:03:19;;;;;;;13.60;8.30;;;2.50;94.40;;;;;;2081223;28;20153;-88
2021/12/27 04:04:20;;;;;;;16.45;8.98;;;2.50;94.40;;;;;;2081359;28;20491;-88
2021/12/27 04:05:22;;;;;;;14.55;8.90;;;2.50;94.50;;;;;;2080331;28;20045;-88
2021/12/27 04:06:25;;;;;;;16.05;9.38;;;2.50;94.50;;;;;;2089393;28;20044;-88
2021/12/27 04:07:28;;;;;;;14.93;9.27;;;2.50;94.50;;;;;;2097705;28;20128;-88
2021/12/27 04:08:28;;;;;;;13.90;8.45;;;2.60;94.50;;;;;;2080519;28;20091;-88
2021/12/27 04:09:30;;;;;;;15.75;9.25;;;2.60;94.50;;;;;;2073614;28;20404;-88
2021/12/27 04:10:30;;;;;;;17.15;10.15;;;2.60;94.50;;;;;;2081043;28;20048;-89
2021/12/27 04:11:31;;;;;;;17.50;9.90;;;2.60;94.50;;;;;;2080830;28;20378;-88
2021/12/27 04:12:32;;;;;;;13.57;8.88;;;2.60;94.50;;;;;;2088987;28;20095;-88
2021/12/27 04:13:33;;;;;;;15.65;8.88;;;2.60;94.50;;;;;;2090717;28;20438;-88
2021/12/27 04:14:34;;;;;;;18.92;9.90;;;2.60;94.50;;;;;;2072918;28;20065;-89
2021/12/27 04:15:36;;;;;;;18.08;10.50;;;2.50;94.80;;;;;;2072998;28;20046;-88
2021/12/27 04:16:36;;;;;;;20.58;10.02;;;2.60;94.60;;;;;;2089295;28;20037;-88
2021/12/27 04:17:37;;;;;;;17.80;10.57;;;2.60;94.60;;;;;;2080402;28;20037;-88
2021/12/27 04:18:39;;;;;;;17.55;10.73;;;2.60;94.60;;;;;;2064206;28;20050;-88
2021/12/27 04:19:39;;;;;;;20.92;11.82;;;2.60;94.60;;;;;;2073239;28;20519;-89
2021/12/27 04:20:40;;;;;;;21.25;12.07;;;2.60;94.60;;;;;;2081191;28;20084;-88
2021/12/27 04:21:41;;;;;;;20.27;10.95;;;2.60;94.60;;;;;;2088811;28;20041;-88
2021/12/27 04:22:41;;;;;;;19.73;12.05;;;2.60;94.60;;;;;;2098148;28;20521;-88
2021/12/27 04:23:42;;;;;;;21.58;12.20;;;2.60;94.60;;;;;;2089180;28;20041;-89
2021/12/27 04:24:43;;;;;;;18.27;11.50;;;2.60;94.60;;;;;;2081297;28;20033;-89
2021/12/27 04:25:44;;;;;;;19.25;11.40;;;2.60;94.60;;;;;;2089218;28;20033;-89
2021/12/27 04:26:44;;;;;;;18.63;10.95;;;2.60;94.60;;;;;;2098229;28;20029;-89
2021/12/27 04:27:46;;;;;;;15.70;10.20;;;2.60;94.60;;;;;;2080514;28;20037;-88
2021/12/27 04:28:47;;;;;;;17.52;10.48;;;2.60;94.60;;;;;;2071472;28;20038;-89
2021/12/27 04:29:48;;;;;;;17.80;10.93;;;2.60;94.60;;;;;;2081072;28;20503;-87
2021/12/27 04:30:48;;;;;;;16.75;10.45;;;2.60;94.60;;;;;;2088755;28;20029;-88
2021/12/27 04:31:49;;;;;;;15.80;10.18;;;2.60;94.60;;;;;;2081136;28;20045;-89
2021/12/27 04:32:50;;;;;;;20.75;11.10;;;2.60;94.60;;;;;;2066201;28;20073;-89
2021/12/27 04:33:51;;;;;;;20.92;11.35;;;2.60;94.70;;;;;;2078614;28;20041;-88
2021/12/27 04:34:52;;;;;;;18.88;9.88;;;2.60;94.70;;;;;;2079333;28;20120;-89
2021/12/27 04:35:53;;;;;;;18.60;10.57;;;2.60;94.70;;;;;;2087867;28;20044;-88
2021/12/27 04:36:54;;;;;;;20.33;11.35;;;2.70;94.70;;;;;;2089401;28;20068;-89
2021/12/27 04:37:55;;;;;;;19.98;10.75;;;2.60;94.70;;;;;;2084583;28;20072;-88
2021/12/27 04:38:55;;;;;;;21.58;11.10;;;2.60;94.70;;;;;;2068146;28;20041;-88
2021/12/27 04:39:57;;;;;;;18.92;10.63;;;2.70;94.70;;;;;;2065574;28;20279;-85
2021/12/27 04:40:58;;;;;;;18.60;10.23;;;2.70;94.70;;;;;;2091270;28;20098;-85
2021/12/27 04:42:00;;;;;;;16.83;10.70;;;2.70;94.70;;;;;;2083986;28;20033;-85
2021/12/27 04:43:08;;;;;;;20.52;11.43;;;2.70;94.70;;;;;;2096735;28;20028;-85
2021/12/27 04:44:08;;;;;;;18.92;10.50;;;2.70;94.70;;;;;;2100639;28;20031;-85
2021/12/27 04:45:11;;;;;;;17.23;11.13;;;2.70;94.70;;;;;;2077853;28;20421;-85
2021/12/27 04:46:12;;;;;;;16.80;10.98;;;2.70;94.70;;;;;;2075791;28;20034;-85
2021/12/27 04:47:16;;;;;;;19.48;11.15;;;2.70;94.70;;;;;;2093131;28;20405;-89
2021/12/27 04:48:18;;;;;;;16.17;10.35;;;2.70;94.80;;;;;;2088616;28;20123;-88
2021/12/27 04:49:19;;;;;;;21.48;11.77;;;2.70;94.80;;;;;;2089439;28;20040;-89
2021/12/27 04:50:21;;;;;;;20.58;11.68;;;2.70;94.80;;;;;;2088852;28;20455;-88
2021/12/27 04:51:22;;;;;;;18.52;10.80;;;2.70;94.80;;;;;;2098087;28;20037;-89
2021/12/27 04:52:23;;;;;;;23.50;11.65;;;2.70;94.80;;;;;;2098375;28;20037;-88
2021/12/27 04:53:23;;;;;;;19.00;11.68;;;2.70;94.80;;;;;;2099952;28;20044;-89
2021/12/27 04:54:24;;;;;;;21.92;11.60;;;2.70;94.80;;;;;;2097109;28;20040;-89
2021/12/27 04:55:26;;;;;;;22.00;12.02;;;2.70;94.80;;;;;;2077526;28;20030;-89
2021/12/27 04:56:27;;;;;;;23.08;12.15;;;2.70;94.80;;;;;;2081281;28;20037;-89
2021/12/27 04:57:28;;;;;;;17.58;11.38;;;2.70;94.80;;;;;;2081150;28;20079;-89
2021/12/27 04:58:29;;;;;;;19.70;11.65;;;2.80;94.80;;;;;;2071954;28;20591;-88
2021/12/27 04:59:30;;;;;;;20.42;12.00;;;2.70;94.80;;;;;;2088492;28;20758;-89
2021/12/27 05:00:31;;;;;;;19.77;11.35;;;2.70;94.80;;;;;;2096335;28;20044;-89
2021/12/27 05:01:32;;;;;;;22.70;12.45;;;2.80;94.90;;;;;;2091359;28;20501;-88
2021/12/27 05:02:33;;;;;;;22.90;13.10;;;2.80;94.90;;;;;;2095402;28;20123;-89
2021/12/27 05:03:34;;;;;;;21.70;12.05;;;2.80;94.90;;;;;;2089056;28;20039;-89
2021/12/27 05:04:35;;;;;;;19.02;11.27;;;2.80;94.90;;;;;;2081129;28;20036;-89
2021/12/27 05:05:37;;;;;;;21.00;11.65;;;2.80;94.90;;;;;;2072889;28;20045;-89
2021/12/27 05:06:38;;;;;;;19.67;11.65;;;2.80;94.90;;;;;;2073188;28;20042;-89
2021/12/27 05:07:38;;;;;;;19.50;11.63;;;2.80;94.90;;;;;;2085016;28;20038;-89
2021/12/27 05:08:40;;;;;;;19.40;12.05;;;2.80;95.10;;;;;;2071754;28;20125;-88
2021/12/27 05:09:41;;;;;;;19.20;11.73;;;2.80;94.90;;;;;;2064346;28;20034;-89
2021/12/27 05:10:41;;;;;;;20.92;11.75;;;2.80;94.90;;;;;;2064814;28;20034;-89
2021/12/27 05:11:42;;;;;;;24.45;12.30;;;2.80;94.90;;;;;;2072954;28;20459;-89
2021/12/27 05:12:44;;;;;;;24.30;12.60;;;2.80;94.90;;;;;;2081027;28;20124;-89
2021/12/27 05:13:45;;;;;;;23.88;13.10;;;2.80;94.90;;;;;;2080905;28;20044;-89
2021/12/27 05:14:45;;;;;;;24.48;13.30;;;2.80;94.90;;;;;;2080828;28;20030;-89
2021/12/27 05:15:47;;;;;;;21.98;12.18;;;2.90;94.90;;;;;;2085167;28;20048;-89
2021/12/27 05:16:48;;;;;;;21.65;12.13;;;2.90;94.90;;;;;;2090269;28;20071;-89
2021/12/27 05:17:49;;;;;;;21.92;12.48;;;2.90;94.90;;;;;;2102373;28;20509;-89
2021/12/27 05:18:49;;;;;;;20.75;12.13;;;2.90;94.90;;;;;;2098941;28;20127;-89
2021/12/27 05:19:50;;;;;;;24.45;14.15;;;2.90;95.00;;;;;;2099101;28;20426;-90
2021/12/27 05:20:51;;;;;;;21.70;12.88;;;2.90;95.00;;;;;;2098917;28;20044;-89
2021/12/27 05:21:51;;;;;;;22.08;12.85;;;2.90;95.00;;;;;;2102794;28;20036;-89
2021/12/27 05:22:52;;;;;;;22.67;12.48;;;2.90;95.00;;;;;;2099703;28;20067;-89
2021/12/27 05:23:53;;;;;;;19.85;12.00;;;2.90;94.90;;;;;;2099164;28;20090;-89